Time;durP1;ratioP1;P1;durP2;ratioP2;P2;SDS_P1;SDS_P2;PMS_P1;PMS_P2;Temp;Humidity;BMP_temperature;BMP_pressure;BME280_temperature;BME280_humidity;BME280_pressure;Samples;Min_cycle;Max_cycle;Signal;HPM_P1;HPM_P2
2022/08/17 00:01:24;;;;;;;6.30;5.70;;;24.20;69.10;;;;;;5067642;28;20495;-71
2022/08/17 00:03:51;;;;;;;6.43;5.20;;;24.10;69.60;;;;;;5066055;28;21061;-71
2022/08/17 00:06:26;;;;;;;6.33;5.73;;;23.90;69.80;;;;;;5059557;28;20437;-69
2022/08/17 00:09:00;;;;;;;6.47;5.97;;;24.00;69.60;;;;;;5083737;28;20429;-69
2022/08/17 00:11:28;;;;;;;6.50;6.00;;;24.10;69.70;;;;;;5080956;28;20969;-70
2022/08/17 00:13:58;;;;;;;6.93;6.30;;;24.10;69.80;;;;;;5056111;28;20445;-70
2022/08/17 00:16:36;;;;;;;5.87;5.30;;;24.10;69.70;;;;;;5068692;28;20452;-70
2022/08/17 00:19:05;;;;;;;6.70;6.10;;;24.10;69.60;;;;;;5059880;28;20971;-70
2022/08/17 00:21:33;;;;;;;5.87;5.40;;;24.10;69.60;;;;;;5069316;28;20532;-70
2022/08/17 00:23:58;;;;;;;5.77;5.27;;;24.00;69.20;;;;;;5068042;28;20456;-70
2022/08/17 00:26:27;;;;;;;6.33;5.73;;;24.00;69.70;;;;;;5064328;28;20452;-70
2022/08/17 00:28:54;;;;;;;6.80;5.83;;;23.90;69.90;;;;;;5068047;28;20738;-70
2022/08/17 00:31:20;;;;;;;5.63;5.23;;;23.90;69.70;;;;;;5066569;28;20528;-70
2022/08/17 00:33:47;;;;;;;6.30;5.70;;;23.90;69.80;;;;;;5067058;28;20461;-70
2022/08/17 00:36:14;;;;;;;5.87;5.40;;;23.80;70.10;;;;;;5067516;28;20987;-70
2022/08/17 00:38:41;;;;;;;5.77;5.20;;;23.80;70.40;;;;;;5051360;28;20457;-70
2022/08/17 00:41:17;;;;;;;6.03;5.33;;;23.80;70.20;;;;;;5067999;28;20473;-70
2022/08/17 00:43:48;;;;;;;8.43;5.50;;;23.70;70.30;;;;;;5064346;28;20449;-70
2022/08/17 00:46:21;;;;;;;5.90;5.40;;;23.70;71.10;;;;;;5053828;28;20459;-69
2022/08/17 00:48:48;;;;;;;6.27;5.77;;;23.70;70.20;;;;;;5067745;28;20452;-70
2022/08/17 00:51:29;;;;;;;5.57;5.13;;;23.60;70.20;;;;;;5067821;28;20452;-69
2022/08/17 00:54:17;;;;;;;6.00;5.40;;;23.70;70.40;;;;;;5061937;28;20543;-70
2022/08/17 00:57:18;;;;;;;6.57;5.50;;;23.70;70.50;;;;;;5068528;28;20591;-70
2022/08/17 00:59:48;;;;;;;6.07;5.57;;;23.60;70.30;;;;;;5060769;28;20441;-70
2022/08/17 01:02:16;;;;;;;6.20;5.60;;;23.50;70.30;;;;;;5058794;28;20445;-70
2022/08/17 01:04:44;;;;;;;5.67;5.17;;;23.50;70.30;;;;;;5040650;28;20457;-70
2022/08/17 01:07:11;;;;;;;6.80;6.10;;;23.50;70.30;;;;;;5050818;28;20500;-70
2022/08/17 01:09:38;;;;;;;6.00;5.50;;;23.50;70.40;;;;;;5051275;28;20473;-69
2022/08/17 01:12:07;;;;;;;6.00;5.50;;;23.40;70.50;;;;;;5067793;28;20558;-70
2022/08/17 01:14:33;;;;;;;6.20;5.70;;;23.50;70.50;;;;;;5048534;28;20441;-69
2022/08/17 01:16:59;;;;;;;5.57;5.07;;;23.40;70.50;;;;;;5071801;28;20825;-70
2022/08/17 01:19:29;;;;;;;5.63;5.13;;;23.40;70.50;;;;;;5069164;28;20223;-70
2022/08/17 01:22:06;;;;;;;6.00;5.40;;;23.40;70.90;;;;;;5057834;28;20697;-69
2022/08/17 01:24:34;;;;;;;5.87;5.33;;;23.30;70.80;;;;;;5088355;28;20464;-70
2022/08/17 01:27:00;;;;;;;6.63;6.00;;;23.30;70.90;;;;;;5071784;28;20500;-70
2022/08/17 01:29:29;;;;;;;7.53;5.07;;;23.40;70.70;;;;;;5058944;28;20476;-70
2022/08/17 01:31:59;;;;;;;5.47;4.83;;;23.30;70.40;;;;;;5065531;28;20970;-70
2022/08/17 01:34:25;;;;;;;6.13;5.60;;;23.40;70.30;;;;;;5067023;28;20460;-69
2022/08/17 01:36:52;;;;;;;6.40;5.67;;;23.40;70.30;;;;;;5070796;28;20994;-70
2022/08/17 01:39:36;;;;;;;7.97;5.63;;;23.40;70.40;;;;;;5068311;28;20458;-68
2022/08/17 01:42:28;;;;;;;6.93;5.50;;;23.40;70.10;;;;;;5071312;28;20464;-70
2022/08/17 01:44:57;;;;;;;5.70;5.20;;;23.30;69.70;;;;;;5044062;28;20457;-69
2022/08/17 01:47:23;;;;;;;5.30;4.63;;;23.30;69.70;;;;;;5077097;28;20533;-69
2022/08/17 01:49:49;;;;;;;5.63;5.23;;;23.30;69.70;;;;;;5070750;28;20465;-69
2022/08/17 01:52:16;;;;;;;6.17;5.27;;;23.30;70.10;;;;;;5070468;28;20453;-70
2022/08/17 01:54:46;;;;;;;6.67;6.07;;;23.30;70.20;;;;;;5056085;28;20697;-70
2022/08/17 01:57:12;;;;;;;6.60;5.83;;;23.30;70.10;;;;;;5053914;28;20582;-70
2022/08/17 01:59:38;;;;;;;6.10;5.60;;;23.20;70.30;;;;;;5047055;28;20864;-68
2022/08/17 02:02:06;;;;;;;6.27;5.67;;;23.10;70.50;;;;;;5086980;28;20542;-70
2022/08/17 02:04:32;;;;;;;6.57;5.97;;;23.10;70.10;;;;;;5071131;28;20218;-70
2022/08/17 02:06:58;;;;;;;6.00;5.47;;;23.10;70.20;;;;;;5062712;28;21115;-70
2022/08/17 02:09:26;;;;;;;6.03;5.53;;;23.10;70.60;;;;;;5071378;28;20540;-70
2022/08/17 02:11:53;;;;;;;6.57;5.97;;;23.10;70.20;;;;;;5069655;28;20230;-69
2022/08/17 02:14:19;;;;;;;6.37;5.80;;;23.10;70.70;;;;;;5080440;28;20543;-70
2022/08/17 02:16:44;;;;;;;6.20;5.70;;;23.10;70.90;;;;;;5055281;28;20536;-70
2022/08/17 02:19:14;;;;;;;5.57;5.17;;;23.10;70.50;;;;;;5060646;28;20228;-70
2022/08/17 02:21:41;;;;;;;6.20;5.70;;;23.10;70.80;;;;;;5078444;28;20226;-69
2022/08/17 02:24:11;;;;;;;6.30;5.80;;;23.10;70.80;;;;;;5069366;28;20519;-70
2022/08/17 02:26:37;;;;;;;6.07;5.37;;;23.00;70.70;;;;;;5064241;28;20450;-69
2022/08/17 02:29:03;;;;;;;6.70;6.00;;;23.00;70.90;;;;;;5062629;28;20453;-70
2022/08/17 02:31:29;;;;;;;6.57;5.97;;;23.00;70.90;;;;;;5071191;28;20280;-68
2022/08/17 02:33:56;;;;;;;7.00;6.40;;;23.00;70.90;;;;;;5055385;28;20223;-69
2022/08/17 02:36:22;;;;;;;6.17;5.57;;;23.00;71.10;;;;;;5067446;28;20472;-70
2022/08/17 02:38:48;;;;;;;6.63;6.03;;;23.00;71.20;;;;;;5060332;28;20463;-69
2022/08/17 02:41:14;;;;;;;6.40;5.80;;;22.90;71.20;;;;;;5067495;28;20441;-69
2022/08/17 02:43:40;;;;;;;6.43;5.70;;;22.90;70.90;;;;;;5070024;28;20876;-69
2022/08/17 02:46:06;;;;;;;6.20;5.70;;;22.90;71.10;;;;;;5086124;28;20211;-69
2022/08/17 02:48:32;;;;;;;5.30;4.80;;;22.90;71.00;;;;;;5068699;28;20977;-69
2022/08/17 02:50:59;;;;;;;5.80;5.30;;;22.90;71.50;;;;;;5066480;28;20234;-69
2022/08/17 02:53:25;;;;;;;7.30;6.03;;;22.80;71.10;;;;;;5050269;28;20227;-69
2022/08/17 02:55:51;;;;;;;6.47;5.87;;;22.80;71.50;;;;;;5059393;28;20444;-69
2022/08/17 02:58:17;;;;;;;6.37;5.80;;;22.80;71.20;;;;;;5060942;28;20222;-69
2022/08/17 03:00:47;;;;;;;6.33;5.83;;;22.80;71.60;;;;;;5066244;28;20454;-69
2022/08/17 03:03:19;;;;;;;6.47;5.37;;;22.80;72.20;;;;;;5049436;28;20522;-69
2022/08/17 03:05:47;;;;;;;6.60;5.80;;;22.70;71.50;;;;;;5059312;28;20449;-69
2022/08/17 03:08:14;;;;;;;6.57;5.97;;;22.70;73.00;;;;;;5061428;28;20452;-69
2022/08/17 03:10:41;;;;;;;6.23;5.60;;;22.60;72.90;;;;;;5057493;28;20500;-69
2022/08/17 03:13:06;;;;;;;5.87;5.37;;;22.60;72.70;;;;;;5066006;28;20449;-70
2022/08/17 03:15:33;;;;;;;6.17;5.67;;;22.60;72.70;;;;;;5069243;28;20457;-69
2022/08/17 03:18:00;;;;;;;6.50;5.90;;;22.60;72.60;;;;;;5070726;28;20222;-70
2022/08/17 03:20:29;;;;;;;6.00;5.50;;;22.60;72.60;;;;;;5064711;28;20449;-69
2022/08/17 03:22:56;;;;;;;10.00;6.50;;;22.60;72.60;;;;;;5061115;27;20511;-70
2022/08/17 03:25:28;;;;;;;5.90;4.80;;;22.60;72.40;;;;;;5084636;28;20464;-70
2022/08/17 03:27:55;;;;;;;7.73;6.13;;;22.50;72.50;;;;;;5071862;28;20477;-70
2022/08/17 03:30:22;;;;;;;5.90;5.40;;;22.40;73.10;;;;;;5067812;28;20473;-70
2022/08/17 03:32:50;;;;;;;6.43;5.83;;;22.40;73.00;;;;;;5067747;28;20457;-70
2022/08/17 03:35:20;;;;;;;5.50;5.00;;;22.40;73.10;;;;;;5034399;28;20465;-70
2022/08/17 03:37:46;;;;;;;6.60;6.00;;;22.40;73.00;;;;;;5050415;28;20465;-69
2022/08/17 03:40:12;;;;;;;6.30;5.27;;;22.40;73.20;;;;;;5076983;28;20448;-69
2022/08/17 03:42:40;;;;;;;6.53;5.90;;;22.40;73.10;;;;;;5048698;28;20215;-70
2022/08/17 03:45:11;;;;;;;6.77;6.17;;;22.40;73.10;;;;;;5064725;28;21075;-69
2022/08/17 03:58:42;;;;;;;6.13;5.63;;;22.40;73.20;;;;;;5066585;28;20446;-70
2022/08/17 04:01:08;;;;;;;6.23;5.73;;;22.40;73.40;;;;;;5068861;28;20452;-70
2022/08/17 04:03:34;;;;;;;7.50;5.90;;;22.40;73.30;;;;;;5065549;28;20242;-70
2022/08/17 04:06:01;;;;;;;6.43;5.53;;;22.30;73.30;;;;;;5046452;28;20229;-70
2022/08/17 04:08:27;;;;;;;6.87;6.27;;;22.30;73.20;;;;;;5066556;28;20473;-70
2022/08/17 04:10:55;;;;;;;7.83;6.47;;;22.30;72.90;;;;;;5048578;28;20497;-70
2022/08/17 04:13:21;;;;;;;6.00;5.50;;;22.30;73.60;;;;;;5058644;28;20453;-69
2022/08/17 04:15:48;;;;;;;7.63;6.83;;;22.30;73.50;;;;;;5056359;28;20465;-69
2022/08/17 04:18:15;;;;;;;9.00;6.13;;;22.30;73.70;;;;;;5059911;28;20570;-69
2022/08/17 04:20:41;;;;;;;11.93;5.73;;;22.20;73.70;;;;;;5065790;28;20474;-70
2022/08/17 04:23:10;;;;;;;6.63;5.97;;;22.20;74.00;;;;;;5070481;28;20666;-69
2022/08/17 04:25:40;;;;;;;7.00;6.30;;;22.20;74.90;;;;;;5057392;28;20458;-70
2022/08/17 04:28:07;;;;;;;6.87;5.77;;;22.20;74.60;;;;;;5056771;28;21000;-70
2022/08/17 04:30:35;;;;;;;7.40;6.20;;;22.20;74.90;;;;;;5084348;28;20465;-69
2022/08/17 04:33:08;;;;;;;5.77;5.27;;;22.20;74.60;;;;;;5060022;28;20465;-70
2022/08/17 04:35:42;;;;;;;6.67;6.13;;;22.20;74.70;;;;;;5053385;28;20445;-69
2022/08/17 04:38:11;;;;;;;6.13;5.60;;;22.10;74.40;;;;;;5063637;28;20498;-69
2022/08/17 04:43:23;;;;;;;6.60;6.00;;;22.10;75.20;;;;;;5068491;28;20477;-69
2022/08/17 04:45:55;;;;;;;6.77;6.07;;;22.10;74.40;;;;;;5062517;28;20518;-70
2022/08/17 04:48:21;;;;;;;7.30;6.00;;;22.10;75.30;;;;;;5052243;28;20469;-68
2022/08/17 04:50:48;;;;;;;6.47;5.97;;;22.10;74.70;;;;;;5072743;28;20473;-70
2022/08/17 04:53:15;;;;;;;6.57;6.00;;;22.10;75.10;;;;;;5069188;28;20233;-69
2022/08/17 04:55:41;;;;;;;6.20;5.30;;;22.10;75.30;;;;;;5064595;28;20935;-70
2022/08/17 04:58:08;;;;;;;6.97;6.37;;;22.10;75.70;;;;;;5071009;28;20514;-70
2022/08/17 05:00:34;;;;;;;5.80;5.30;;;22.10;76.00;;;;;;5071893;28;21117;-70
2022/08/17 05:03:00;;;;;;;5.93;5.33;;;22.10;76.30;;;;;;5071450;28;21047;-69
2022/08/17 05:05:28;;;;;;;6.93;6.33;;;22.10;76.40;;;;;;5056002;28;20553;-68
2022/08/17 05:07:56;;;;;;;6.90;6.20;;;22.10;76.20;;;;;;5054578;28;20269;-70
2022/08/17 05:10:24;;;;;;;7.20;6.60;;;22.00;76.20;;;;;;5088952;28;20465;-69
2022/08/17 05:13:16;;;;;;;7.77;6.80;;;22.00;77.50;;;;;;5071427;28;20465;-70
2022/08/17 05:15:44;;;;;;;6.97;6.27;;;22.00;77.10;;;;;;5044917;28;20528;-70
2022/08/17 05:18:09;;;;;;;6.97;6.27;;;22.00;77.60;;;;;;5078015;28;21031;-69
2022/08/17 05:20:37;;;;;;;6.50;5.90;;;21.90;78.50;;;;;;5060953;28;20537;-69
2022/08/17 05:23:06;;;;;;;6.43;5.87;;;21.90;78.20;;;;;;5071160;28;20240;-70
2022/08/17 05:25:37;;;;;;;6.10;5.60;;;21.90;79.00;;;;;;5071091;28;20475;-69
2022/08/17 05:28:03;;;;;;;7.90;6.70;;;21.90;78.70;;;;;;5052284;28;20457;-69
2022/08/17 05:30:29;;;;;;;7.23;6.53;;;22.00;78.30;;;;;;5043662;28;20481;-69
2022/08/17 05:33:05;;;;;;;5.70;5.20;;;22.00;78.80;;;;;;5068628;28;20996;-70
2022/08/17 05:35:34;;;;;;;6.17;5.63;;;21.90;79.00;;;;;;5071637;28;20218;-69
2022/08/17 05:38:00;;;;;;;7.37;6.77;;;22.00;79.30;;;;;;5062516;28;20450;-70
2022/08/17 05:40:26;;;;;;;7.87;7.07;;;22.00;78.00;;;;;;5069004;28;20445;-70
2022/08/17 05:43:04;;;;;;;6.67;5.97;;;22.00;78.00;;;;;;5069953;28;20543;-70
2022/08/17 05:45:31;;;;;;;7.23;5.47;;;22.00;78.50;;;;;;5066932;28;20477;-70
2022/08/17 05:47:57;;;;;;;6.70;5.87;;;22.00;78.60;;;;;;5068012;28;20827;-70
2022/08/17 05:50:30;;;;;;;7.13;6.17;;;22.00;79.00;;;;;;5069631;28;20477;-69
2022/08/17 05:53:20;;;;;;;7.00;6.13;;;22.00;78.00;;;;;;5069062;28;20257;-70
2022/08/17 05:56:21;;;;;;;5.97;5.47;;;22.00;77.90;;;;;;5062164;28;20498;-70
2022/08/17 05:59:10;;;;;;;6.33;5.53;;;22.00;78.10;;;;;;5047399;28;20449;-70
2022/08/17 06:02:04;;;;;;;6.40;5.77;;;22.10;78.60;;;;;;5059809;28;20445;-70
2022/08/17 06:04:48;;;;;;;7.67;5.87;;;22.10;79.60;;;;;;5058319;28;20472;-69
2022/08/17 06:07:21;;;;;;;6.97;6.20;;;22.10;79.10;;;;;;5061540;28;20523;-70
2022/08/17 06:10:16;;;;;;;6.27;5.67;;;22.10;78.30;;;;;;5056500;28;20574;-70
2022/08/17 06:13:14;;;;;;;7.60;5.83;;;22.10;79.80;;;;;;5046307;28;20442;-70
2022/08/17 06:16:15;;;;;;;7.87;6.33;;;22.10;80.80;;;;;;5054768;28;20458;-70
2022/08/17 06:18:52;;;;;;;8.73;6.30;;;22.10;81.50;;;;;;5065592;28;20455;-70
2022/08/17 06:21:19;;;;;;;8.90;6.00;;;22.20;81.70;;;;;;5062180;28;20457;-70
2022/08/17 06:23:55;;;;;;;6.87;6.33;;;22.20;82.00;;;;;;5065295;28;20453;-70
2022/08/17 06:26:30;;;;;;;6.70;6.20;;;22.20;80.80;;;;;;5043310;28;20866;-70
2022/08/17 06:29:01;;;;;;;7.07;6.37;;;22.20;81.30;;;;;;5064575;28;20467;-69
2022/08/17 06:31:33;;;;;;;7.37;6.60;;;22.20;81.10;;;;;;5055865;28;20880;-70
2022/08/17 06:34:01;;;;;;;7.30;6.60;;;22.20;81.20;;;;;;5065951;28;20957;-70
2022/08/17 06:36:55;;;;;;;7.60;6.90;;;22.20;81.40;;;;;;5062216;28;20450;-70
2022/08/17 06:39:36;;;;;;;6.90;6.30;;;22.20;81.60;;;;;;5064540;28;20477;-69
2022/08/17 06:42:11;;;;;;;6.53;5.90;;;22.20;81.00;;;;;;5054872;28;20468;-69
2022/08/17 06:44:45;;;;;;;7.77;6.10;;;22.30;81.20;;;;;;5048004;28;20440;-69
2022/08/17 06:47:18;;;;;;;7.40;6.40;;;22.30;81.80;;;;;;5063381;28;20441;-70
2022/08/17 06:50:14;;;;;;;8.47;6.90;;;22.30;81.90;;;;;;5058304;28;20466;-70
2022/08/17 06:52:59;;;;;;;8.97;6.17;;;22.30;81.70;;;;;;5075958;28;20940;-70
2022/08/17 06:55:32;;;;;;;7.20;6.63;;;22.30;81.80;;;;;;5060767;28;21004;-70
2022/08/17 06:58:04;;;;;;;7.57;6.87;;;22.30;81.50;;;;;;5065113;28;21023;-70
2022/08/17 07:00:41;;;;;;;6.27;5.77;;;22.30;82.50;;;;;;5062416;28;20575;-70
2022/08/17 07:03:08;;;;;;;6.80;6.23;;;22.30;82.50;;;;;;5068005;28;20445;-69
2022/08/17 07:05:44;;;;;;;6.60;6.00;;;22.40;81.90;;;;;;5069369;28;20449;-69
2022/08/17 07:08:23;;;;;;;8.30;6.30;;;22.30;81.90;;;;;;5078104;27;20517;-70
2022/08/17 07:10:59;;;;;;;6.47;5.97;;;22.30;81.70;;;;;;5059533;28;21003;-70
2022/08/17 07:13:57;;;;;;;6.50;5.90;;;22.40;82.40;;;;;;5059950;28;20453;-70
2022/08/17 07:16:45;;;;;;;10.33;6.03;;;22.40;81.80;;;;;;5026336;28;20974;-70
2022/08/17 07:19:15;;;;;;;6.27;5.77;;;22.40;82.30;;;;;;5061276;28;20478;-70
2022/08/17 07:21:50;;;;;;;6.80;6.20;;;22.40;82.50;;;;;;5065619;28;20461;-69
2022/08/17 07:24:40;;;;;;;7.40;6.13;;;22.40;82.90;;;;;;5063449;28;20457;-70
2022/08/17 07:27:19;;;;;;;7.40;6.57;;;22.40;81.90;;;;;;5053455;27;20465;-68
2022/08/17 07:30:00;;;;;;;7.87;6.20;;;22.40;82.10;;;;;;5062217;28;20469;-69
2022/08/17 07:32:34;;;;;;;7.03;6.37;;;22.40;82.50;;;;;;5076131;28;20983;-69
2022/08/17 07:35:09;;;;;;;6.87;6.10;;;22.40;81.50;;;;;;5057527;28;20484;-70
2022/08/17 07:37:42;;;;;;;6.50;6.00;;;22.40;83.90;;;;;;5044961;28;20469;-69
2022/08/17 07:40:25;;;;;;;6.33;5.77;;;22.50;83.80;;;;;;5062552;28;20441;-70
2022/08/17 07:43:03;;;;;;;6.83;6.30;;;22.50;84.40;;;;;;5060510;28;20508;-70
2022/08/17 07:48:23;;;;;;;10.03;7.03;;;22.50;84.40;;;;;;5070510;28;20880;-70
2022/08/17 07:50:52;;;;;;;7.23;6.53;;;22.50;84.20;;;;;;5060344;28;20515;-69
2022/08/17 07:53:24;;;;;;;6.83;6.20;;;22.50;84.30;;;;;;5046911;28;20446;-69
2022/08/17 07:55:52;;;;;;;6.27;5.77;;;22.50;84.60;;;;;;5063910;28;20465;-69
2022/08/17 07:58:22;;;;;;;7.63;6.93;;;22.50;87.70;;;;;;5063202;28;20517;-70
2022/08/17 08:01:09;;;;;;;7.03;6.00;;;22.50;88.90;;;;;;5058948;28;21007;-70
2022/08/17 08:03:43;;;;;;;7.17;6.47;;;22.60;89.80;;;;;;5049690;28;20584;-70
2022/08/17 08:06:25;;;;;;;6.47;5.87;;;22.60;89.50;;;;;;5064468;28;20535;-70
2022/08/17 08:08:54;;;;;;;9.47;6.27;;;22.50;88.80;;;;;;5058442;28;20469;-69
2022/08/17 08:11:35;;;;;;;7.10;6.40;;;22.50;88.50;;;;;;5065399;28;20684;-70
2022/08/17 08:14:28;;;;;;;6.50;5.90;;;22.50;88.00;;;;;;5057416;28;20836;-70
2022/08/17 08:17:05;;;;;;;6.23;5.73;;;22.50;87.50;;;;;;5042123;28;20460;-70
2022/08/17 08:19:32;;;;;;;7.27;6.57;;;22.50;87.60;;;;;;5071859;28;20449;-70
2022/08/17 08:22:09;;;;;;;7.03;6.43;;;22.50;87.40;;;;;;5064106;28;21008;-70
2022/08/17 08:24:59;;;;;;;6.47;5.87;;;22.50;87.70;;;;;;5067915;28;20502;-68
2022/08/17 08:27:43;;;;;;;5.80;5.20;;;22.50;87.90;;;;;;5063422;28;20473;-70
2022/08/17 08:30:11;;;;;;;6.40;5.80;;;22.50;87.20;;;;;;5056677;28;20999;-70
2022/08/17 08:32:36;;;;;;;9.17;6.40;;;22.50;88.50;;;;;;5065337;28;20453;-70
2022/08/17 08:35:11;;;;;;;6.33;5.73;;;22.50;87.30;;;;;;5066335;28;20448;-69
2022/08/17 08:37:52;;;;;;;7.10;6.50;;;22.50;87.10;;;;;;5064349;28;20225;-69
2022/08/17 08:40:52;;;;;;;6.83;6.10;;;22.50;87.20;;;;;;5061769;28;20452;-70
2022/08/17 08:43:36;;;;;;;7.20;5.73;;;22.50;86.70;;;;;;5062700;28;20532;-70
2022/08/17 08:46:08;;;;;;;7.47;6.10;;;22.50;86.60;;;;;;5062480;28;20446;-70
2022/08/17 08:49:09;;;;;;;6.60;6.10;;;22.50;85.80;;;;;;5065514;28;20509;-70
2022/08/17 08:51:51;;;;;;;7.20;6.50;;;22.60;87.20;;;;;;5062070;28;20461;-70
2022/08/17 08:54:20;;;;;;;8.00;6.23;;;22.60;87.00;;;;;;5061952;28;20997;-69
2022/08/17 08:57:06;;;;;;;6.23;5.50;;;22.60;86.60;;;;;;5065965;28;20445;-70
2022/08/17 08:59:50;;;;;;;6.43;5.77;;;22.60;86.50;;;;;;5067986;28;20522;-69
2022/08/17 09:02:34;;;;;;;6.10;5.60;;;22.60;85.60;;;;;;5060473;28;20985;-70
2022/08/17 09:05:18;;;;;;;7.57;6.50;;;22.60;87.10;;;;;;5044345;28;20472;-70
2022/08/17 09:08:05;;;;;;;6.27;5.70;;;22.70;87.10;;;;;;5067097;28;20448;-69
2022/08/17 09:10:55;;;;;;;6.00;5.47;;;22.70;86.40;;;;;;5063166;28;20469;-70
2022/08/17 09:13:45;;;;;;;6.20;5.50;;;22.70;87.20;;;;;;5057389;28;20472;-70
2022/08/17 09:16:16;;;;;;;7.27;6.60;;;22.80;87.40;;;;;;5057997;28;20434;-69
2022/08/17 09:18:52;;;;;;;6.80;6.20;;;22.80;86.60;;;;;;5064760;28;20487;-70
2022/08/17 09:21:57;;;;;;;8.90;6.37;;;22.80;87.60;;;;;;5049199;28;20448;-70
2022/08/17 09:24:38;;;;;;;7.37;6.70;;;22.90;88.50;;;;;;5044012;28;20501;-70
2022/08/17 09:27:15;;;;;;;6.90;6.37;;;22.90;88.00;;;;;;5061490;28;20449;-69
2022/08/17 09:30:01;;;;;;;7.60;6.60;;;23.00;87.80;;;;;;5064469;28;20507;-69
2022/08/17 09:32:41;;;;;;;8.83;6.87;;;23.00;88.10;;;;;;5062752;28;20507;-71
2022/08/17 09:35:28;;;;;;;7.00;6.40;;;23.00;88.40;;;;;;5058950;28;20523;-71
2022/08/17 09:38:15;;;;;;;7.77;6.60;;;23.10;88.30;;;;;;5052465;28;20487;-71
2022/08/17 09:41:23;;;;;;;9.07;7.30;;;23.10;88.20;;;;;;5064922;28;20445;-71
2022/08/17 09:44:15;;;;;;;7.63;6.43;;;23.20;89.20;;;;;;5041565;28;20456;-71
2022/08/17 09:46:57;;;;;;;7.60;6.10;;;23.30;89.70;;;;;;5062436;28;20520;-71
2022/08/17 09:49:50;;;;;;;7.73;6.97;;;23.40;89.70;;;;;;5047718;28;20503;-71
2022/08/17 09:52:22;;;;;;;8.20;7.50;;;23.40;89.40;;;;;;5071643;28;20446;-71
2022/08/17 09:54:51;;;;;;;8.80;6.73;;;23.40;89.70;;;;;;5058218;28;20553;-71
2022/08/17 09:57:25;;;;;;;7.87;7.17;;;23.50;90.00;;;;;;5046908;28;20442;-71
2022/08/17 10:00:14;;;;;;;8.07;7.27;;;23.50;90.60;;;;;;5064023;28;20453;-71
2022/08/17 10:02:40;;;;;;;9.50;7.10;;;23.60;90.80;;;;;;5064469;28;20465;-71
2022/08/17 10:05:45;;;;;;;6.93;6.37;;;23.70;90.70;;;;;;5064716;28;20457;-71
2022/08/17 10:08:33;;;;;;;7.17;6.57;;;23.70;90.40;;;;;;5046159;28;20260;-71
2022/08/17 10:11:13;;;;;;;7.37;6.67;;;23.70;89.90;;;;;;5079055;28;20565;-71
2022/08/17 10:13:55;;;;;;;7.30;6.60;;;23.80;90.00;;;;;;5060962;28;20464;-71
2022/08/17 10:16:37;;;;;;;7.13;6.43;;;23.80;89.80;;;;;;5046904;28;20445;-71
2022/08/17 10:19:17;;;;;;;12.00;6.50;;;23.80;89.40;;;;;;5045530;28;20551;-71
2022/08/17 10:27:45;;;;;;;7.70;6.90;;;23.90;88.70;;;;;;5061398;28;20520;-71
2022/08/17 10:30:16;;;;;;;8.47;6.77;;;24.00;88.60;;;;;;5061455;28;20468;-70
2022/08/17 10:32:57;;;;;;;6.80;6.27;;;24.00;88.20;;;;;;5062966;28;20449;-71
2022/08/17 10:35:35;;;;;;;7.10;6.47;;;24.10;88.20;;;;;;5062467;28;20460;-71
2022/08/17 10:38:03;;;;;;;7.40;6.70;;;24.10;87.80;;;;;;5060457;28;20468;-70
2022/08/17 10:40:52;;;;;;;6.37;5.77;;;24.10;87.20;;;;;;5065013;28;20541;-71
2022/08/17 10:44:01;;;;;;;5.60;5.20;;;24.20;87.30;;;;;;5051468;28;20472;-71
2022/08/17 10:47:25;;;;;;;5.23;4.83;;;24.20;86.80;;;;;;5047401;28;20469;-71
2022/08/17 10:49:54;;;;;;;6.07;5.50;;;24.30;85.50;;;;;;5004232;28;20496;-71
2022/08/17 10:52:26;;;;;;;5.57;5.17;;;24.30;85.10;;;;;;4971812;28;20473;-71
2022/08/17 10:54:55;;;;;;;4.97;4.57;;;24.40;85.00;;;;;;5029340;28;20461;-72
2022/08/17 10:57:32;;;;;;;5.50;5.10;;;24.40;84.70;;;;;;5063700;28;20504;-71
2022/08/17 11:00:11;;;;;;;5.93;4.60;;;24.50;85.00;;;;;;5067800;28;20452;-71
2022/08/17 11:02:48;;;;;;;5.57;5.17;;;24.60;84.10;;;;;;5067255;28;20983;-71
2022/08/17 11:05:23;;;;;;;5.03;4.53;;;24.70;83.80;;;;;;5061405;28;20458;-71
2022/08/17 11:08:04;;;;;;;5.43;4.93;;;24.80;83.70;;;;;;5078695;28;20459;-71
2022/08/17 11:10:48;;;;;;;5.57;4.37;;;24.90;84.40;;;;;;5066280;28;20469;-71
2022/08/17 11:13:26;;;;;;;5.30;4.90;;;25.20;83.50;;;;;;5066298;28;20467;-71
2022/08/17 11:16:01;;;;;;;5.90;5.40;;;25.50;82.90;;;;;;5050806;28;20454;-71
2022/08/17 11:18:32;;;;;;;5.27;4.87;;;25.60;82.40;;;;;;5083926;28;20507;-71
2022/08/17 11:21:04;;;;;;;4.90;4.50;;;25.70;82.00;;;;;;5063033;28;20467;-71
2022/08/17 11:24:08;;;;;;;7.97;5.03;;;26.00;81.20;;;;;;5066358;28;20473;-71
2022/08/17 11:26:37;;;;;;;5.00;4.60;;;26.10;80.40;;;;;;5065916;28;20526;-70
2022/08/17 11:29:09;;;;;;;5.00;4.60;;;26.20;79.80;;;;;;5069500;28;20463;-70
2022/08/17 11:31:42;;;;;;;5.83;5.23;;;26.40;80.00;;;;;;5045782;28;20987;-71
2022/08/17 11:34:25;;;;;;;5.67;5.10;;;26.50;79.10;;;;;;5061640;28;20461;-71
2022/08/17 11:37:08;;;;;;;5.90;5.40;;;26.60;79.30;;;;;;5076587;27;20449;-72
2022/08/17 11:40:16;;;;;;;5.53;5.03;;;26.80;78.70;;;;;;5058371;28;20466;-71
2022/08/17 11:43:07;;;;;;;5.80;5.00;;;26.90;77.60;;;;;;5065623;28;20478;-71
2022/08/17 11:45:36;;;;;;;6.33;5.70;;;27.00;77.30;;;;;;5048368;28;20449;-71
2022/08/17 11:54:29;;;;;;;5.60;5.20;;;27.20;76.60;;;;;;5048076;28;20459;-71
2022/08/17 11:56:57;;;;;;;8.20;5.10;;;27.30;76.60;;;;;;5075718;28;20458;-69
2022/08/17 11:59:31;;;;;;;6.23;5.40;;;27.40;76.00;;;;;;5060821;28;20227;-69
2022/08/17 12:02:16;;;;;;;6.17;5.73;;;27.40;75.70;;;;;;5073067;28;20220;-69
2022/08/17 12:05:01;;;;;;;6.30;5.40;;;27.50;75.30;;;;;;5067337;28;20228;-69
2022/08/17 12:07:31;;;;;;;5.73;5.33;;;27.60;75.20;;;;;;5066226;28;20234;-69
2022/08/17 12:09:59;;;;;;;5.50;5.00;;;27.60;74.80;;;;;;5069343;28;20317;-68
2022/08/17 12:12:34;;;;;;;5.57;5.17;;;27.50;75.00;;;;;;5084913;28;20770;-69
2022/08/17 12:15:04;;;;;;;6.40;5.90;;;27.50;75.10;;;;;;5068206;28;20220;-69
2022/08/17 12:17:31;;;;;;;7.05;5.90;;;27.50;75.10;;;;;;5063532;28;20237;-69
2022/08/17 12:20:22;;;;;;;5.80;4.93;;;27.60;74.90;;;;;;5064330;28;20273;-69
2022/08/17 12:22:59;;;;;;;6.63;6.03;;;27.60;75.00;;;;;;5060072;28;20220;-69
2022/08/17 12:25:42;;;;;;;6.07;5.60;;;27.70;75.00;;;;;;5049803;28;20321;-69
2022/08/17 12:28:44;;;;;;;6.47;5.95;;;27.70;74.40;;;;;;5080502;28;20223;-69
2022/08/17 12:31:18;;;;;;;7.55;5.82;;;27.70;75.20;;;;;;5046390;28;20266;-68
2022/08/17 12:33:45;;;;;;;6.20;5.80;;;27.70;75.60;;;;;;5056104;28;20229;-69
2022/08/17 12:36:14;;;;;;;6.30;5.80;;;27.80;76.30;;;;;;5057825;28;20227;-68
2022/08/17 12:38:58;;;;;;;7.45;6.85;;;27.90;76.20;;;;;;5054854;28;20221;-68
2022/08/17 12:41:42;;;;;;;6.05;5.65;;;28.10;76.60;;;;;;5045638;28;20220;-69
2022/08/17 12:44:10;;;;;;;7.50;6.90;;;28.10;76.20;;;;;;5062562;28;20225;-69
2022/08/17 12:47:03;;;;;;;6.82;6.22;;;28.20;75.90;;;;;;5064501;28;20304;-68
2022/08/17 12:49:32;;;;;;;8.73;8.05;;;28.20;76.10;;;;;;5061382;28;20232;-69
2022/08/17 12:52:18;;;;;;;7.00;6.30;;;28.30;75.40;;;;;;5076348;28;20225;-69
2022/08/17 12:54:52;;;;;;;7.60;7.00;;;28.40;75.60;;;;;;5062952;28;20599;-69
2022/08/17 12:57:31;;;;;;;7.25;6.55;;;28.50;75.30;;;;;;5060383;28;20222;-69
2022/08/17 13:00:16;;;;;;;5.30;4.97;;;28.60;74.50;;;;;;5060558;28;20534;-69
2022/08/17 13:03:17;;;;;;;6.97;6.28;;;28.70;74.00;;;;;;5067661;28;20218;-69
2022/08/17 13:05:59;;;;;;;6.40;5.90;;;28.70;73.90;;;;;;5070499;28;20221;-69
2022/08/17 13:08:37;;;;;;;6.53;6.05;;;28.80;74.00;;;;;;5072203;28;20664;-69
2022/08/17 13:11:17;;;;;;;6.68;6.07;;;28.90;73.80;;;;;;5051700;28;20275;-69
2022/08/17 13:13:47;;;;;;;6.90;6.30;;;29.00;73.10;;;;;;5083942;28;20231;-69
2022/08/17 13:16:15;;;;;;;7.20;6.60;;;29.00;72.90;;;;;;5063310;27;20230;-69
2022/08/17 13:18:44;;;;;;;6.07;5.68;;;29.10;73.50;;;;;;5072398;28;20227;-68
2022/08/17 13:21:32;;;;;;;7.03;6.43;;;29.40;73.30;;;;;;5072404;27;20227;-69
2022/08/17 13:24:09;;;;;;;7.15;6.05;;;29.60;73.00;;;;;;5078377;28;20343;-69
2022/08/17 13:26:43;;;;;;;5.90;5.40;;;29.70;73.00;;;;;;5079558;28;20245;-69
2022/08/17 13:29:34;;;;;;;6.90;6.30;;;29.70;71.90;;;;;;5065112;27;20320;-69
2022/08/17 13:32:03;;;;;;;6.75;6.28;;;29.80;71.90;;;;;;5088753;28;20237;-69
2022/08/17 13:34:33;;;;;;;6.65;6.05;;;30.10;70.00;;;;;;5075250;28;20236;-69
2022/08/17 13:39:56;;;;;;;6.18;5.68;;;30.10;69.90;;;;;;5069984;28;20279;-69
2022/08/17 13:42:30;;;;;;;6.85;6.22;;;30.10;70.30;;;;;;5068019;28;20242;-69
2022/08/17 13:44:56;;;;;;;7.32;6.63;;;30.20;70.00;;;;;;5063959;28;20296;-69
2022/08/17 13:47:23;;;;;;;7.43;6.72;;;30.10;69.10;;;;;;5063060;28;20252;-69
2022/08/17 13:49:50;;;;;;;6.60;5.90;;;30.00;68.90;;;;;;5067920;28;20251;-69
2022/08/17 13:52:35;;;;;;;7.53;6.93;;;30.00;68.20;;;;;;5077974;27;20251;-69
2022/08/17 13:55:06;;;;;;;6.97;6.20;;;30.10;68.00;;;;;;5059983;28;20440;-69
2022/08/17 13:57:33;;;;;;;7.07;6.40;;;30.20;67.30;;;;;;5075736;28;20279;-68